Hulst, Netherlands
Current Conditions -  °F | °C
As of 6:55 AM on Wednesday 22 Oct 2014 (Local Time) from EHWO Reporting Station
Overcast Overcast  
Wind Chill: 43°   Ceiling: 3300
Heat Index: 48°   Visibility: 6mi
Dew Point: 43°   Wind: 14mph
Humidity: 82%   Direction: 300°WNW
Pressure: 30"   Gusts: 25mph
Location:  51.28°N, 4.05°E
Report Text: EHWO 220455Z AUTO 30012G22KT 9999 SCT029 BKN033 OVC040 09/06 Q1016 BLU
Loading
Personal Weather Stations






























Interactive Weather Map
Tropical Storm Tracking
New forecast layout! Learn more

10-Day Weather Forecast

Advertisements
Track Severe Weather on mobile